Mitgliederbereich
Imprimable
Challenges > Delhalle - Seraing, 05/06/2011, BEL - Les 10 Miles de Seraing
Liste der Berichte > Delhalle - 10 Miles - Ergebnis
Suche: Seite: [1]
31 Eingaben
 
Les réclamations ne sont plus acceptées, les résultats sont considérés comme définitifs.
PlatzNrNameAgeNATLigaMannschaftRealZeitTkmMoy.ScrPtsStadt
1.717FDELDICQUE Louise30CSDY1:01:541:01:563:51 15.5921942
2.2489FWAGELMANS Clarisse351:05:231:05:274:04 14.7641867
3.125FVAN DER ZWALMEN Sabine31BELUSBWMYSTERE1:05:371:05:414:05 14.7044861LASNE
4.2522FSOENEN Virginie25SMAC1:06:301:06:354:09 14.5153840
5.2471FPESSER Aline39AVENIR1:09:421:09:554:21 13.8191762
6.2090FHOST Sandrine Arlette36BEL1:11:021:11:224:27 13.53103732CHAUDFONTAINE
7.2507FWESPHAEL Evelyne311:11:101:11:404:28 13.48108727
8.2084FROBERTI Daphne35BELCEPAL1:11:511:12:024:29 13.41114713BRUXELLES
9.2493FBASTYNS Katrien31AVN1:15:431:16:074:44 12.69166618
10.907FTHIRY Marie29BELRCNAMUR1:17:531:18:094:52 12.36206559
11.2072FBALZAT Sonia38BEL1:18:011:18:204:52 12.33212554TEMPLOUX
12.2531FHEYMANS Lilie391:18:461:19:154:56 12.19230531
13.2672FBENGLER Natacha361:20:061:20:185:00 12.03249499
14.2474FMOOR Claudine27L'AVENIR1:20:371:20:485:02 11.95259485
15.105FDEMOULIN Benedicte34BELCOVIS1:21:001:21:285:04 11.85269472
16.2078FMARTIN Isabelle27BELRCNAMUR1:20:531:21:305:04 11.85270474MAILLEN
17.879FGEERAERTS Magali23BELCSFMYSTERE1:21:551:22:035:06 11.77280452BUIZINGEN
18.2680FDI NOTTE 331:23:071:23:395:12 11.55293427
19.847FARNOULD Sylvie35BELRCNAMUR1:24:501:25:285:19 11.30311393EVREHAILLES
20.2401FCOLLINGE Antoinette32BEL1:25:311:25:465:20 11.26318379LIEGE
21.798FDEBONI Malorie27BELCSFMYSTERE1:27:171:27:235:26 11.05344338
22.2434FDE GELDER Karolien30COLAS1:28:251:29:015:32 10.85366309
23.2397FBOBOLI Hedwige39BEL1:29:451:30:085:36 10.72372288ESNEUX
24.2617FMOTTARD Sophie33BELSTART TO RUN1:34:411:35:195:56 10.13417198
25.2508FREGNIERS Valentine241:35:211:35:505:58 10.08422186
26.2495FBLUME Christel391:37:141:37:476:05 9.88436155
27.2628FVANDEWEYER Ludivine33BELSERUNNE1:37:581:38:476:09 9.78440144
28.918FCAT Carine37BELZEN-ITUDE1:38:181:38:526:09 9.77441140
29.2411FHURARD Valerie31BEL1:42:111:42:386:23 9.4145686SOUMAGNE
30.2435FDE KEUKELAERE Nathalie33COLAS1:51:081:51:526:58 8.634708
31.2442FGERARD Adelle31COLAS1:51:521:52:236:59 8.594726
DNF: abandon; DSQ: disqualifié; Vitesse en km/h
Seite: [1]